Time;durP1;ratioP1;P1;durP2;ratioP2;P2;SDS_P1;SDS_P2;PMS_P1;PMS_P2;Temp;Humidity;BMP_temperature;BMP_pressure;BME280_temperature;BME280_humidity;BME280_pressure;Samples;Min_cycle;Max_cycle;Signal;HPM_P1;HPM_P2
2023/05/26 19:37:39;;;;;;;16.58;3.75;;;;;;;14.20;100.00;102445.78;5055799;27;20126;-70
2023/05/26 19:40:06;;;;;;;18.40;3.97;;;;;;;14.23;100.00;102451.41;5030050;28;20048;-69
2023/05/26 19:42:33;;;;;;;16.00;3.50;;;;;;;14.22;100.00;102446.19;5031663;28;20103;-71
2023/05/26 19:44:59;;;;;;;16.35;4.18;;;;;;;14.22;100.00;102457.41;5029015;28;20096;-71
2023/05/26 19:47:26;;;;;;;20.13;4.20;;;;;;;14.20;100.00;102463.38;5027488;28;20060;-71
2023/05/26 19:49:53;;;;;;;20.58;4.55;;;;;;;14.18;100.00;102459.41;5024362;28;20102;-72
2023/05/26 19:52:19;;;;;;;19.23;5.40;;;;;;;14.14;100.00;102459.38;5025669;28;20050;-71
2023/05/26 19:54:46;;;;;;;18.80;4.57;;;;;;;14.04;100.00;102465.00;5023697;28;20692;-69
2023/05/26 19:57:12;;;;;;;21.17;4.30;;;;;;;13.93;100.00;102455.78;5028642;28;20114;-72
2023/05/26 19:59:39;;;;;;;18.80;4.20;;;;;;;13.93;100.00;102459.41;5025739;28;20111;-72
2023/05/26 20:02:05;;;;;;;14.02;4.07;;;;;;;13.94;100.00;102465.81;5029976;28;20095;-72
2023/05/26 20:04:32;;;;;;;21.88;4.07;;;;;;;13.88;100.00;102472.97;5024676;28;20049;-71
2023/05/26 20:06:59;;;;;;;14.18;4.00;;;;;;;13.86;100.00;102464.19;5030213;28;20176;-72
2023/05/26 20:09:25;;;;;;;21.50;4.50;;;;;;;13.84;100.00;102472.97;5034460;28;20464;-73
2023/05/26 20:11:52;;;;;;;22.77;4.80;;;;;;;13.77;100.00;102470.16;5020356;28;20499;-73
2023/05/26 20:14:18;;;;;;;17.08;5.30;;;;;;;13.74;100.00;102470.16;5025001;28;20053;-72
2023/05/26 20:16:45;;;;;;;22.60;5.60;;;;;;;13.69;100.00;102476.94;5024488;28;20049;-71
2023/05/26 20:19:12;;;;;;;22.75;4.95;;;;;;;13.59;100.00;102471.31;5029113;28;20050;-71
2023/05/26 20:21:40;;;;;;;25.67;5.25;;;;;;;13.56;100.00;102478.53;5018059;28;20629;-72
2023/05/26 20:24:06;;;;;;;22.55;5.13;;;;;;;13.45;100.00;102474.91;5030650;28;20047;-73
2023/05/26 20:26:33;;;;;;;21.27;4.82;;;;;;;13.35;100.00;102469.25;5004264;28;20046;-71
2023/05/26 20:29:00;;;;;;;15.98;4.45;;;;;;;13.37;100.00;102480.84;5027527;28;20501;-73
2023/05/26 20:31:26;;;;;;;24.33;5.95;;;;;;;13.26;100.00;102480.00;5033706;28;20050;-74
2023/05/26 20:33:55;;;;;;;22.38;5.65;;;;;;;13.21;100.00;102474.78;5040040;28;20080;-71
2023/05/26 20:36:22;;;;;;;22.63;5.55;;;;;;;13.13;100.00;102473.94;5035958;28;20053;-72
2023/05/26 20:38:52;;;;;;;21.85;5.72;;;;;;;13.08;100.00;102484.72;5028513;28;20120;-73
2023/05/26 20:41:20;;;;;;;21.92;5.47;;;;;;;13.05;100.00;102486.31;5039400;28;20492;-72
2023/05/26 20:43:47;;;;;;;27.70;6.07;;;;;;;12.96;100.00;102474.69;5021566;28;20464;-72
2023/05/26 20:46:13;;;;;;;20.88;4.80;;;;;;;12.95;100.00;102484.25;5026018;28;20064;-72
2023/05/26 20:48:43;;;;;;;21.85;5.22;;;;;;;12.92;100.00;102478.63;5016887;28;20427;-73
2023/05/26 20:51:09;;;;;;;19.05;4.88;;;;;;;12.92;100.00;102492.59;5013906;28;20056;-73
2023/05/26 20:53:36;;;;;;;19.45;4.80;;;;;;;12.84;100.00;102479.81;5021087;28;20107;-74
2023/05/26 20:56:03;;;;;;;21.42;5.88;;;;;;;12.81;100.00;102475.81;5024556;28;20140;-73
2023/05/26 20:58:30;;;;;;;19.85;6.40;;;;;;;12.77;100.00;102474.19;5018146;28;20060;-72
2023/05/26 21:00:56;;;;;;;22.13;5.82;;;;;;;12.76;100.00;102478.19;4994840;28;20049;-74
2023/05/26 21:03:23;;;;;;;21.15;4.88;;;;;;;12.64;100.00;102472.91;4975798;28;20297;-75
2023/05/26 21:05:50;;;;;;;23.80;5.63;;;;;;;12.62;100.00;102476.09;5008340;28;20838;-73
2023/05/26 21:08:16;;;;;;;25.75;6.22;;;;;;;12.58;100.00;102478.06;5009666;28;20052;-73
2023/05/26 21:10:43;;;;;;;24.42;5.47;;;;;;;12.53;100.00;102472.88;5011740;28;20080;-73
2023/05/26 21:13:10;;;;;;;21.15;5.45;;;;;;;12.48;100.00;102471.25;5017754;28;20056;-72
2023/05/26 21:15:36;;;;;;;24.05;5.55;;;;;;;12.49;100.00;102480.38;5019957;28;20053;-72
2023/05/26 21:18:03;;;;;;;21.52;5.50;;;;;;;12.37;100.00;102481.53;5011112;28;20053;-72
2023/05/26 21:20:30;;;;;;;19.85;5.57;;;;;;;12.28;100.00;102477.41;5004022;28;20080;-72
2023/05/26 21:22:57;;;;;;;23.48;5.55;;;;;;;12.22;100.00;102474.19;5013009;28;20049;-72
2023/05/26 21:25:23;;;;;;;18.77;6.57;;;;;;;12.26;100.00;102475.03;5013854;28;20049;-73
2023/05/26 21:27:50;;;;;;;33.58;7.20;;;;;;;12.25;100.00;102476.22;5010571;28;20077;-75
2023/05/26 21:30:19;;;;;;;18.88;5.25;;;;;;;12.20;100.00;102479.38;5005658;28;20049;-73
2023/05/26 21:32:50;;;;;;;20.13;5.10;;;;;;;12.03;100.00;102474.47;5008492;28;20054;-71
2023/05/26 21:35:17;;;;;;;23.52;5.25;;;;;;;11.95;100.00;102470.00;5010223;28;20054;-74
2023/05/26 21:37:44;;;;;;;28.65;6.75;;;;;;;11.94;100.00;102476.75;5009032;28;20132;-72
2023/05/26 21:40:11;;;;;;;33.95;7.40;;;;;;;11.96;100.00;102479.94;5007153;28;20054;-74
2023/05/26 21:42:38;;;;;;;21.92;5.65;;;;;;;11.92;100.00;102484.69;5008437;28;20138;-77
2023/05/26 21:45:05;;;;;;;28.10;6.65;;;;;;;11.89;100.00;102479.88;5012574;28;20054;-75
2023/05/26 21:47:31;;;;;;;23.77;6.90;;;;;;;11.82;100.00;102479.03;5007001;28;20042;-74
2023/05/26 21:49:58;;;;;;;17.27;5.38;;;;;;;11.80;100.00;102473.84;5006814;28;20073;-74
2023/05/26 21:52:25;;;;;;;21.15;5.38;;;;;;;11.73;100.00;102470.19;5013113;28;20087;-74
2023/05/26 21:54:51;;;;;;;24.63;6.45;;;;;;;11.64;100.00;102476.06;5015561;28;20357;-73
2023/05/26 21:57:18;;;;;;;23.98;5.60;;;;;;;11.65;100.00;102469.31;5010788;28;20625;-73
2023/05/26 21:59:45;;;;;;;28.25;6.47;;;;;;;11.62;100.00;102480.44;5004068;28;20054;-75
2023/05/26 22:02:11;;;;;;;20.75;5.30;;;;;;;11.56;100.00;102466.06;5012207;28;20050;-73
2023/05/26 22:04:38;;;;;;;30.33;7.05;;;;;;;11.54;100.00;102473.16;5012320;28;20115;-74
2023/05/26 22:07:05;;;;;;;20.52;5.78;;;;;;;11.43;100.00;102481.44;5018268;28;20107;-72
2023/05/26 22:09:31;;;;;;;28.17;6.55;;;;;;;11.36;100.00;102478.56;4991040;28;20061;-73
2023/05/26 22:11:58;;;;;;;25.75;5.82;;;;;;;11.31;100.00;102481.66;5015300;28;20050;-74
2023/05/26 22:14:25;;;;;;;20.00;5.97;;;;;;;11.32;100.00;102480.50;5006329;28;20073;-72
2023/05/26 22:16:52;;;;;;;23.83;5.78;;;;;;;11.28;100.00;102485.22;5005483;28;20053;-72
2023/05/26 22:19:18;;;;;;;24.00;5.50;;;;;;;11.25;100.00;102488.78;5009180;28;20127;-74
2023/05/26 22:21:45;;;;;;;18.88;5.22;;;;;;;11.22;100.00;102489.53;5008061;28;20053;-74
2023/05/26 22:24:12;;;;;;;25.75;6.82;;;;;;;11.19;100.00;102495.84;5012089;28;20237;-72
2023/05/26 22:26:38;;;;;;;25.40;5.97;;;;;;;11.17;100.00;102489.03;5005813;28;20057;-72
2023/05/26 22:29:05;;;;;;;19.35;5.15;;;;;;;11.14;100.00;102492.59;5019713;28;20050;-72
2023/05/26 22:31:31;;;;;;;24.70;6.63;;;;;;;11.05;100.00;102490.09;5018182;28;20064;-68
2023/05/26 22:33:58;;;;;;;24.98;6.53;;;;;;;11.02;100.00;102499.19;5016344;28;20049;-72
2023/05/26 22:36:25;;;;;;;23.10;5.72;;;;;;;11.00;100.00;102501.53;5009311;28;20578;-75
2023/05/26 22:38:52;;;;;;;20.02;6.30;;;;;;;10.95;100.00;102499.09;5008251;28;20085;-71
2023/05/26 22:41:19;;;;;;;19.17;5.82;;;;;;;10.93;100.00;102487.53;5002726;28;20499;-71
2023/05/26 22:43:45;;;;;;;23.33;6.28;;;;;;;10.82;100.00;102489.38;5015854;28;20468;-76
2023/05/26 22:46:12;;;;;;;22.13;5.43;;;;;;;10.78;100.00;102484.94;4997596;28;20050;-75
2023/05/26 22:48:38;;;;;;;24.45;6.13;;;;;;;10.72;100.00;102505.91;5009223;28;20050;-74
2023/05/26 22:51:05;;;;;;;17.45;4.43;;;;;;;10.69;100.00;102503.88;5006375;28;20045;-73
2023/05/26 22:53:32;;;;;;;22.00;6.03;;;;;;;10.68;100.00;102500.31;5005898;28;20507;-73
2023/05/26 22:55:58;;;;;;;21.83;6.07;;;;;;;10.64;100.00;102491.13;5018849;28;20049;-74
2023/05/26 22:58:34;;;;;;;19.70;5.50;;;;;;;10.66;100.00;102493.50;5013511;28;20393;-73
2023/05/26 23:01:01;;;;;;;19.52;5.85;;;;;;;10.59;100.00;102488.66;5007896;28;20573;-75
2023/05/26 23:03:28;;;;;;;22.67;5.47;;;;;;;10.56;100.00;102497.75;5012290;28;20099;-74
2023/05/26 23:05:55;;;;;;;20.35;5.43;;;;;;;10.52;100.00;102491.31;5038939;28;20049;-71
2023/05/26 23:08:22;;;;;;;26.02;5.07;;;;;;;10.53;100.00;102495.69;5011322;28;20038;-75
2023/05/26 23:10:48;;;;;;;20.05;5.30;;;;;;;10.49;100.00;102485.69;5008365;28;20574;-74
2023/05/26 23:13:15;;;;;;;19.15;5.53;;;;;;;10.45;100.00;102491.22;5013783;28;20096;-71
2023/05/26 23:15:41;;;;;;;25.15;6.90;;;;;;;10.41;100.00;102492.34;5008599;28;20077;-72
2023/05/26 23:18:08;;;;;;;24.40;5.07;;;;;;;10.34;100.00;102490.25;5007626;28;20677;-73
2023/05/26 23:20:35;;;;;;;18.60;4.88;;;;;;;10.29;100.00;102492.56;5009585;28;20053;-72
2023/05/26 23:23:01;;;;;;;27.13;4.82;;;;;;;10.24;100.00;102490.91;5014015;28;20045;-72
2023/05/26 23:25:28;;;;;;;29.70;5.72;;;;;;;10.18;100.00;102489.59;5003460;28;20647;-73
2023/05/26 23:27:54;;;;;;;21.25;5.50;;;;;;;10.14;100.00;102497.09;5016157;28;20038;-73
2023/05/26 23:30:21;;;;;;;23.77;5.28;;;;;;;10.14;100.00;102487.94;5004133;28;20129;-73
2023/05/26 23:32:47;;;;;;;22.80;5.65;;;;;;;10.11;100.00;102495.03;5009657;28;20096;-73
2023/05/26 23:35:16;;;;;;;20.40;5.90;;;;;;;10.07;100.00;102488.63;5011394;28;20076;-74
2023/05/26 23:37:43;;;;;;;25.20;4.85;;;;;;;10.07;100.00;102488.63;5016703;28;20049;-72
2023/05/26 23:40:10;;;;;;;19.98;5.15;;;;;;;9.98;100.00;102485.25;5002221;28;20046;-74
2023/05/26 23:42:36;;;;;;;22.30;5.55;;;;;;;9.97;100.00;102492.78;5009870;28;20057;-74
2023/05/26 23:45:03;;;;;;;22.30;5.32;;;;;;;9.95;100.00;102486.00;5002581;28;20046;-72
2023/05/26 23:47:30;;;;;;;19.08;5.07;;;;;;;9.89;100.00;102487.47;5003162;28;20052;-73
2023/05/26 23:49:57;;;;;;;23.38;5.28;;;;;;;9.87;100.00;102484.28;5013138;28;20052;-73
2023/05/26 23:52:23;;;;;;;21.42;5.28;;;;;;;9.82;100.00;102490.13;5006600;28;20792;-74
2023/05/26 23:54:50;;;;;;;18.92;5.22;;;;;;;9.79;100.00;102488.91;5010974;28;20046;-72
2023/05/26 23:57:16;;;;;;;23.73;6.28;;;;;;;9.76;100.00;102483.31;5006920;28;20084;-72
2023/05/26 23:59:43;;;;;;;20.20;5.63;;;;;;;9.72;100.00;102482.41;5015170;28;20107;-73
